sensor_id;sensor_type;location;lat;lon;timestamp;pressure;altitude;pressure_sealevel;temperature;humidity
10466;BME280;5280;42.600;23.556;2023-09-07T00:02:14;93920.03;;;19.90;95.25
10466;BME280;5280;42.600;23.556;2023-09-07T00:04:43;93910.63;;;19.86;95.79
10466;BME280;5280;42.600;23.556;2023-09-07T00:07:09;93903.56;;;19.76;96.55
10466;BME280;5280;42.600;23.556;2023-09-07T00:09:36;93911.63;;;19.85;96.00
10466;BME280;5280;42.600;23.556;2023-09-07T00:12:03;93895.47;;;19.68;96.67
10466;BME280;5280;42.600;23.556;2023-09-07T00:14:30;93895.00;;;19.73;97.71
10466;BME280;5280;42.600;23.556;2023-09-07T00:16:57;93865.53;;;19.39;99.36
10466;BME280;5280;42.600;23.556;2023-09-07T00:19:24;93867.22;;;19.40;100.00
10466;BME280;5280;42.600;23.556;2023-09-07T00:21:52;93913.41;;;19.68;100.00
10466;BME280;5280;42.600;23.556;2023-09-07T00:24:19;93900.94;;;19.43;100.00
10466;BME280;5280;42.600;23.556;2023-09-07T00:26:49;93912.91;;;19.64;100.00
10466;BME280;5280;42.600;23.556;2023-09-07T00:29:17;93916.22;;;19.58;100.00
10466;BME280;5280;42.600;23.556;2023-09-07T00:31:44;93845.19;;;19.12;100.00
10466;BME280;5280;42.600;23.556;2023-09-07T00:34:13;93834.91;;;19.00;100.00
10466;BME280;5280;42.600;23.556;2023-09-07T00:36:40;93905.16;;;19.53;100.00
10466;BME280;5280;42.600;23.556;2023-09-07T00:39:09;93849.53;;;19.13;100.00
10466;BME280;5280;42.600;23.556;2023-09-07T00:41:36;93807.41;;;18.89;100.00
10466;BME280;5280;42.600;23.556;2023-09-07T00:44:03;93837.28;;;19.03;100.00
10466;BME280;5280;42.600;23.556;2023-09-07T00:46:30;93908.13;;;19.42;100.00
10466;BME280;5280;42.600;23.556;2023-09-07T00:48:57;93855.00;;;19.04;100.00
10466;BME280;5280;42.600;23.556;2023-09-07T00:51:24;93897.69;;;19.31;100.00
10466;BME280;5280;42.600;23.556;2023-09-07T00:53:51;93876.13;;;19.07;100.00
10466;BME280;5280;42.600;23.556;2023-09-07T00:56:20;93808.00;;;18.75;100.00
10466;BME280;5280;42.600;23.556;2023-09-07T00:58:48;93905.94;;;19.38;100.00
10466;BME280;5280;42.600;23.556;2023-09-07T01:01:15;93908.56;;;19.29;100.00
10466;BME280;5280;42.600;23.556;2023-09-07T01:03:41;93906.72;;;19.30;100.00
10466;BME280;5280;42.600;23.556;2023-09-07T01:06:12;93903.88;;;19.31;100.00
10466;BME280;5280;42.600;23.556;2023-09-07T01:08:46;93895.13;;;19.21;100.00
10466;BME280;5280;42.600;23.556;2023-09-07T01:11:14;93904.84;;;19.22;100.00
10466;BME280;5280;42.600;23.556;2023-09-07T01:13:43;93817.31;;;18.63;100.00
10466;BME280;5280;42.600;23.556;2023-09-07T01:16:13;93906.50;;;19.23;100.00
10466;BME280;5280;42.600;23.556;2023-09-07T01:18:42;93866.69;;;18.95;100.00
10466;BME280;5280;42.600;23.556;2023-09-07T01:21:09;93873.59;;;18.97;100.00
10466;BME280;5280;42.600;23.556;2023-09-07T01:23:43;93864.81;;;18.87;100.00
10466;BME280;5280;42.600;23.556;2023-09-07T01:26:11;93892.50;;;19.04;100.00
10466;BME280;5280;42.600;23.556;2023-09-07T01:28:38;93813.88;;;18.53;100.00
10466;BME280;5280;42.600;23.556;2023-09-07T01:31:06;93881.13;;;19.02;100.00
10466;BME280;5280;42.600;23.556;2023-09-07T01:33:33;93839.09;;;18.68;100.00
10466;BME280;5280;42.600;23.556;2023-09-07T01:36:00;93912.69;;;19.16;100.00
10466;BME280;5280;42.600;23.556;2023-09-07T01:38:27;93871.94;;;19.04;100.00
10466;BME280;5280;42.600;23.556;2023-09-07T01:40:56;93854.97;;;18.96;100.00
10466;BME280;5280;42.600;23.556;2023-09-07T01:43:23;93902.47;;;19.19;100.00
10466;BME280;5280;42.600;23.556;2023-09-07T01:45:50;93861.03;;;18.98;100.00
10466;BME280;5280;42.600;23.556;2023-09-07T01:48:17;93901.47;;;19.20;100.00
10466;BME280;5280;42.600;23.556;2023-09-07T01:50:44;93906.00;;;19.20;100.00
10466;BME280;5280;42.600;23.556;2023-09-07T01:53:11;93839.66;;;18.80;100.00
10466;BME280;5280;42.600;23.556;2023-09-07T01:55:38;93840.22;;;18.91;100.00
10466;BME280;5280;42.600;23.556;2023-09-07T01:58:08;93887.75;;;19.23;100.00
10466;BME280;5280;42.600;23.556;2023-09-07T02:00:36;93832.97;;;18.84;100.00
10466;BME280;5280;42.600;23.556;2023-09-07T02:03:04;93889.59;;;19.23;100.00
10466;BME280;5280;42.600;23.556;2023-09-07T02:05:31;93845.88;;;18.88;100.00
10466;BME280;5280;42.600;23.556;2023-09-07T02:07:58;93902.34;;;19.29;100.00
10466;BME280;5280;42.600;23.556;2023-09-07T02:10:25;93789.22;;;18.67;100.00
10466;BME280;5280;42.600;23.556;2023-09-07T02:12:52;93854.00;;;19.05;100.00
10466;BME280;5280;42.600;23.556;2023-09-07T02:15:25;93813.69;;;18.72;100.00
10466;BME280;5280;42.600;23.556;2023-09-07T02:17:51;93880.88;;;19.21;100.00
10466;BME280;5280;42.600;23.556;2023-09-07T02:20:18;93888.94;;;19.29;100.00
10466;BME280;5280;42.600;23.556;2023-09-07T02:22:45;93891.97;;;19.26;100.00
10466;BME280;5280;42.600;23.556;2023-09-07T02:25:12;93853.53;;;19.09;100.00
10466;BME280;5280;42.600;23.556;2023-09-07T02:27:47;93877.50;;;19.19;100.00
10466;BME280;5280;42.600;23.556;2023-09-07T02:30:14;93894.28;;;19.21;100.00
10466;BME280;5280;42.600;23.556;2023-09-07T02:32:43;93849.25;;;18.90;100.00
10466;BME280;5280;42.600;23.556;2023-09-07T02:35:10;93907.00;;;19.19;100.00
10466;BME280;5280;42.600;23.556;2023-09-07T02:37:37;93903.28;;;19.12;100.00
10466;BME280;5280;42.600;23.556;2023-09-07T02:40:05;93904.16;;;19.20;100.00
10466;BME280;5280;42.600;23.556;2023-09-07T02:42:36;93901.34;;;19.30;100.00
10466;BME280;5280;42.600;23.556;2023-09-07T02:45:03;93828.44;;;18.76;100.00
10466;BME280;5280;42.600;23.556;2023-09-07T02:47:30;93917.41;;;19.22;100.00
10466;BME280;5280;42.600;23.556;2023-09-07T02:49:59;93898.81;;;19.20;100.00
10466;BME280;5280;42.600;23.556;2023-09-07T02:52:25;93882.50;;;19.06;100.00
10466;BME280;5280;42.600;23.556;2023-09-07T02:54:52;93809.09;;;18.57;100.00
10466;BME280;5280;42.600;23.556;2023-09-07T02:57:19;93863.13;;;18.86;100.00
10466;BME280;5280;42.600;23.556;2023-09-07T02:59:46;93875.94;;;19.00;100.00
10466;BME280;5280;42.600;23.556;2023-09-07T03:02:13;93902.09;;;19.06;100.00
10466;BME280;5280;42.600;23.556;2023-09-07T03:04:42;93817.56;;;18.52;100.00
10466;BME280;5280;42.600;23.556;2023-09-07T03:07:10;93904.44;;;19.09;100.00
10466;BME280;5280;42.600;23.556;2023-09-07T03:09:38;93852.69;;;18.75;100.00
10466;BME280;5280;42.600;23.556;2023-09-07T03:12:09;93848.69;;;18.79;100.00
10466;BME280;5280;42.600;23.556;2023-09-07T03:14:42;93888.53;;;19.08;100.00
10466;BME280;5280;42.600;23.556;2023-09-07T03:17:09;93832.81;;;18.77;100.00
10466;BME280;5280;42.600;23.556;2023-09-07T03:19:36;93813.63;;;18.64;100.00
10466;BME280;5280;42.600;23.556;2023-09-07T03:22:06;93901.34;;;19.22;100.00
10466;BME280;5280;42.600;23.556;2023-09-07T03:24:34;93898.94;;;19.19;100.00
10466;BME280;5280;42.600;23.556;2023-09-07T03:27:01;93824.19;;;18.66;100.00
10466;BME280;5280;42.600;23.556;2023-09-07T03:29:29;93907.31;;;19.16;100.00
10466;BME280;5280;42.600;23.556;2023-09-07T03:31:56;93880.66;;;19.06;100.00
10466;BME280;5280;42.600;23.556;2023-09-07T03:34:23;93808.84;;;18.50;100.00
10466;BME280;5280;42.600;23.556;2023-09-07T03:36:50;93907.28;;;19.08;100.00
10466;BME280;5280;42.600;23.556;2023-09-07T03:39:17;93814.59;;;18.55;100.00
10466;BME280;5280;42.600;23.556;2023-09-07T03:41:45;93808.31;;;18.46;100.00
10466;BME280;5280;42.600;23.556;2023-09-07T03:44:12;93848.66;;;18.71;100.00
10466;BME280;5280;42.600;23.556;2023-09-07T03:46:39;93907.22;;;19.00;100.00
10466;BME280;5280;42.600;23.556;2023-09-07T03:49:08;93884.19;;;18.81;100.00
10466;BME280;5280;42.600;23.556;2023-09-07T03:51:38;93890.06;;;18.84;100.00
10466;BME280;5280;42.600;23.556;2023-09-07T03:54:08;93828.91;;;18.46;100.00
10466;BME280;5280;42.600;23.556;2023-09-07T03:56:35;93829.81;;;18.55;100.00
10466;BME280;5280;42.600;23.556;2023-09-07T03:59:03;93912.66;;;19.08;100.00
10466;BME280;5280;42.600;23.556;2023-09-07T04:01:30;93919.00;;;19.07;100.00
10466;BME280;5280;42.600;23.556;2023-09-07T04:03:57;93881.63;;;18.71;100.00
10466;BME280;5280;42.600;23.556;2023-09-07T04:06:24;93923.47;;;18.98;100.00
10466;BME280;5280;42.600;23.556;2023-09-07T04:08:50;93922.06;;;18.86;100.00
10466;BME280;5280;42.600;23.556;2023-09-07T04:11:17;93926.81;;;18.74;100.00
10466;BME280;5280;42.600;23.556;2023-09-07T04:13:44;93923.53;;;18.80;100.00
10466;BME280;5280;42.600;23.556;2023-09-07T04:16:12;93918.44;;;18.69;100.00
10466;BME280;5280;42.600;23.556;2023-09-07T04:18:39;93914.00;;;18.60;100.00
10466;BME280;5280;42.600;23.556;2023-09-07T04:21:06;93919.41;;;18.68;100.00
10466;BME280;5280;42.600;23.556;2023-09-07T04:23:33;93888.91;;;18.43;100.00
10466;BME280;5280;42.600;23.556;2023-09-07T04:26:06;93912.53;;;18.48;100.00
10466;BME280;5280;42.600;23.556;2023-09-07T04:28:33;93927.72;;;18.57;100.00
10466;BME280;5280;42.600;23.556;2023-09-07T04:31:00;93880.94;;;18.26;100.00
10466;BME280;5280;42.600;23.556;2023-09-07T04:33:31;93890.03;;;18.33;100.00
10466;BME280;5280;42.600;23.556;2023-09-07T04:36:06;93825.13;;;17.87;100.00
10466;BME280;5280;42.600;23.556;2023-09-07T04:38:36;93815.28;;;17.88;100.00
10466;BME280;5280;42.600;23.556;2023-09-07T04:41:07;93916.72;;;18.42;100.00
10466;BME280;5280;42.600;23.556;2023-09-07T04:43:34;93860.75;;;18.14;100.00
10466;BME280;5280;42.600;23.556;2023-09-07T04:46:00;93930.69;;;18.54;100.00
10466;BME280;5280;42.600;23.556;2023-09-07T04:48:28;93817.72;;;17.81;100.00
10466;BME280;5280;42.600;23.556;2023-09-07T04:50:59;93836.28;;;17.83;100.00
10466;BME280;5280;42.600;23.556;2023-09-07T04:53:28;93931.97;;;18.50;100.00
10466;BME280;5280;42.600;23.556;2023-09-07T04:55:56;93918.53;;;18.42;100.00
10466;BME280;5280;42.600;23.556;2023-09-07T04:58:23;93834.50;;;17.91;100.00
10466;BME280;5280;42.600;23.556;2023-09-07T05:00:51;93906.09;;;18.33;100.00
10466;BME280;5280;42.600;23.556;2023-09-07T05:03:18;93845.50;;;17.88;100.00
10466;BME280;5280;42.600;23.556;2023-09-07T05:05:51;93909.91;;;18.30;100.00
10466;BME280;5280;42.600;23.556;2023-09-07T05:08:19;93923.09;;;18.49;100.00
10466;BME280;5280;42.600;23.556;2023-09-07T05:10:48;93899.56;;;18.35;100.00
10466;BME280;5280;42.600;23.556;2023-09-07T05:13:15;93944.91;;;18.72;100.00
10466;BME280;5280;42.600;23.556;2023-09-07T05:15:47;93911.34;;;18.60;100.00
10466;BME280;5280;42.600;23.556;2023-09-07T05:18:19;93867.56;;;18.26;100.00
10466;BME280;5280;42.600;23.556;2023-09-07T05:20:46;93951.56;;;18.94;100.00
10466;BME280;5280;42.600;23.556;2023-09-07T05:23:14;93904.53;;;18.66;100.00
10466;BME280;5280;42.600;23.556;2023-09-07T05:25:47;93956.44;;;18.99;100.00
10466;BME280;5280;42.600;23.556;2023-09-07T05:28:14;93957.25;;;18.91;100.00
10466;BME280;5280;42.600;23.556;2023-09-07T05:30:41;93954.31;;;19.02;100.00
10466;BME280;5280;42.600;23.556;2023-09-07T05:33:09;93946.53;;;18.91;100.00
10466;BME280;5280;42.600;23.556;2023-09-07T05:35:36;93941.31;;;18.89;100.00
10466;BME280;5280;42.600;23.556;2023-09-07T05:38:03;93959.66;;;19.02;100.00
10466;BME280;5280;42.600;23.556;2023-09-07T05:40:33;93947.91;;;18.95;100.00
10466;BME280;5280;42.600;23.556;2023-09-07T05:43:02;93862.16;;;18.43;100.00
10466;BME280;5280;42.600;23.556;2023-09-07T05:45:29;93889.81;;;18.70;100.00
10466;BME280;5280;42.600;23.556;2023-09-07T05:47:56;93959.56;;;19.12;100.00
10466;BME280;5280;42.600;23.556;2023-09-07T05:50:23;93953.41;;;19.19;100.00
10466;BME280;5280;42.600;23.556;2023-09-07T05:52:49;93958.50;;;19.30;100.00
10466;BME280;5280;42.600;23.556;2023-09-07T05:55:16;93898.34;;;18.99;100.00
10466;BME280;5280;42.600;23.556;2023-09-07T05:57:43;93929.97;;;19.21;100.00
10466;BME280;5280;42.600;23.556;2023-09-07T06:00:13;93958.66;;;19.63;100.00
10466;BME280;5280;42.600;23.556;2023-09-07T06:02:45;93939.41;;;19.67;100.00
10466;BME280;5280;42.600;23.556;2023-09-07T06:05:13;93870.19;;;19.29;100.00
10466;BME280;5280;42.600;23.556;2023-09-07T06:07:40;93975.22;;;20.08;100.00
10466;BME280;5280;42.600;23.556;2023-09-07T06:10:07;93963.00;;;20.14;98.91
10466;BME280;5280;42.600;23.556;2023-09-07T06:12:34;93954.81;;;20.15;97.10
10466;BME280;5280;42.600;23.556;2023-09-07T06:15:02;93863.84;;;19.72;96.90
10466;BME280;5280;42.600;23.556;2023-09-07T06:17:30;93963.25;;;20.45;97.69
10466;BME280;5280;42.600;23.556;2023-09-07T06:19:58;93966.78;;;20.45;95.64
10466;BME280;5280;42.600;23.556;2023-09-07T06:22:25;93964.63;;;20.57;94.51
10466;BME280;5280;42.600;23.556;2023-09-07T06:24:51;93955.72;;;20.56;91.32
10466;BME280;5280;42.600;23.556;2023-09-07T06:27:18;93917.78;;;20.35;92.36
10466;BME280;5280;42.600;23.556;2023-09-07T06:29:45;93961.44;;;20.61;91.35
10466;BME280;5280;42.600;23.556;2023-09-07T06:32:13;93960.75;;;20.76;91.55
10466;BME280;5280;42.600;23.556;2023-09-07T06:34:41;93957.06;;;20.69;91.41
10466;BME280;5280;42.600;23.556;2023-09-07T06:37:08;93884.88;;;20.33;91.37
10466;BME280;5280;42.600;23.556;2023-09-07T06:39:35;93916.75;;;20.52;91.94
10466;BME280;5280;42.600;23.556;2023-09-07T06:42:02;93976.88;;;20.92;88.54
10466;BME280;5280;42.600;23.556;2023-09-07T06:44:29;93921.97;;;20.70;83.95
10466;BME280;5280;42.600;23.556;2023-09-07T06:46:57;93974.34;;;21.07;83.38
10466;BME280;5280;42.600;23.556;2023-09-07T06:49:23;93974.00;;;21.10;79.74
10466;BME280;5280;42.600;23.556;2023-09-07T06:51:52;93875.47;;;20.61;78.82
10466;BME280;5280;42.600;23.556;2023-09-07T06:54:19;93894.09;;;20.71;78.82
10466;BME280;5280;42.600;23.556;2023-09-07T06:56:45;93972.00;;;21.20;77.74
10466;BME280;5280;42.600;23.556;2023-09-07T06:59:12;93947.97;;;21.26;75.10
10466;BME280;5280;42.600;23.556;2023-09-07T07:01:40;93970.44;;;21.41;73.76
10466;BME280;5280;42.600;23.556;2023-09-07T07:04:07;93929.81;;;21.20;73.49
10466;BME280;5280;42.600;23.556;2023-09-07T07:06:35;93943.41;;;21.27;73.77
10466;BME280;5280;42.600;23.556;2023-09-07T07:09:04;93877.78;;;20.89;74.25
10466;BME280;5280;42.600;23.556;2023-09-07T07:11:30;93964.72;;;21.44;73.94
10466;BME280;5280;42.600;23.556;2023-09-07T07:13:57;93972.25;;;21.49;73.11
10466;BME280;5280;42.600;23.556;2023-09-07T07:16:24;93987.88;;;21.54;73.30
10466;BME280;5280;42.600;23.556;2023-09-07T07:18:51;93925.94;;;21.23;72.02
10466;BME280;5280;42.600;23.556;2023-09-07T07:21:18;93985.88;;;21.47;72.98
10466;BME280;5280;42.600;23.556;2023-09-07T07:23:45;93944.22;;;21.27;73.32
10466;BME280;5280;42.600;23.556;2023-09-07T07:26:13;93929.13;;;21.18;72.31
10466;BME280;5280;42.600;23.556;2023-09-07T07:28:42;93897.06;;;21.00;70.68
10466;BME280;5280;42.600;23.556;2023-09-07T07:31:10;93914.38;;;21.14;71.53
10466;BME280;5280;42.600;23.556;2023-09-07T07:33:37;93991.88;;;21.66;71.72
10466;BME280;5280;42.600;23.556;2023-09-07T07:36:04;93899.22;;;21.13;71.04
10466;BME280;5280;42.600;23.556;2023-09-07T07:38:31;93899.06;;;21.15;70.12
10466;BME280;5280;42.600;23.556;2023-09-07T07:40:58;93994.69;;;21.80;68.56
10466;BME280;5280;42.600;23.556;2023-09-07T07:43:26;93994.00;;;21.78;66.63
10466;BME280;5280;42.600;23.556;2023-09-07T07:45:54;93998.53;;;21.86;66.51
10466;BME280;5280;42.600;23.556;2023-09-07T07:48:21;93977.00;;;21.86;67.53
10466;BME280;5280;42.600;23.556;2023-09-07T07:50:47;93974.63;;;21.99;61.54
10466;BME280;5280;42.600;23.556;2023-09-07T07:53:14;93953.25;;;21.98;60.88
10466;BME280;5280;42.600;23.556;2023-09-07T07:55:41;93934.97;;;21.85;61.14
10466;BME280;5280;42.600;23.556;2023-09-07T07:58:08;94001.38;;;22.31;60.58
10466;BME280;5280;42.600;23.556;2023-09-07T08:00:37;93994.56;;;22.44;57.74
10466;BME280;5280;42.600;23.556;2023-09-07T08:03:06;93933.31;;;22.15;57.43
10466;BME280;5280;42.600;23.556;2023-09-07T08:05:34;93964.63;;;22.39;55.28
10466;BME280;5280;42.600;23.556;2023-09-07T08:08:05;93995.47;;;22.59;57.96
10466;BME280;5280;42.600;23.556;2023-09-07T08:10:33;93981.25;;;22.73;55.32
10466;BME280;5280;42.600;23.556;2023-09-07T08:13:02;93954.38;;;22.57;55.08
10466;BME280;5280;42.600;23.556;2023-09-07T08:15:29;93986.22;;;22.84;54.10
10466;BME280;5280;42.600;23.556;2023-09-07T08:18:00;93922.13;;;22.49;57.12
10466;BME280;5280;42.600;23.556;2023-09-07T08:20:27;93987.13;;;22.99;56.03
10466;BME280;5280;42.600;23.556;2023-09-07T08:22:55;93978.31;;;23.05;56.51
10466;BME280;5280;42.600;23.556;2023-09-07T08:25:23;93984.53;;;23.06;53.47
10466;BME280;5280;42.600;23.556;2023-09-07T08:27:51;93941.66;;;22.96;54.88
10466;BME280;5280;42.600;23.556;2023-09-07T08:30:21;93949.41;;;23.14;52.70
10466;BME280;5280;42.600;23.556;2023-09-07T08:32:50;93886.31;;;22.86;53.10
10466;BME280;5280;42.600;23.556;2023-09-07T08:35:19;93989.06;;;23.43;50.89
10466;BME280;5280;42.600;23.556;2023-09-07T08:37:48;93985.00;;;23.62;50.85
10466;BME280;5280;42.600;23.556;2023-09-07T08:40:16;93980.56;;;23.69;50.53
10466;BME280;5280;42.600;23.556;2023-09-07T08:42:43;93964.91;;;23.79;49.82
10466;BME280;5280;42.600;23.556;2023-09-07T08:45:13;93945.28;;;23.70;49.95
10466;BME280;5280;42.600;23.556;2023-09-07T08:47:43;93972.56;;;23.90;50.19
10466;BME280;5280;42.600;23.556;2023-09-07T08:50:12;93967.69;;;24.00;49.78
10466;BME280;5280;42.600;23.556;2023-09-07T08:52:42;93958.63;;;24.08;48.48
10466;BME280;5280;42.600;23.556;2023-09-07T08:55:10;93882.69;;;23.81;48.16
10466;BME280;5280;42.600;23.556;2023-09-07T08:57:38;93913.94;;;24.05;47.55
10466;BME280;5280;42.600;23.556;2023-09-07T09:00:06;93872.53;;;23.98;47.70
10466;BME280;5280;42.600;23.556;2023-09-07T09:02:35;93918.31;;;24.21;49.58
10466;BME280;5280;42.600;23.556;2023-09-07T09:05:03;93978.00;;;24.62;47.87
10466;BME280;5280;42.600;23.556;2023-09-07T09:07:31;93968.28;;;24.67;48.15
10466;BME280;5280;42.600;23.556;2023-09-07T09:10:07;93897.44;;;24.29;47.34
10466;BME280;5280;42.600;23.556;2023-09-07T09:12:46;93927.84;;;24.38;46.86
10466;BME280;5280;42.600;23.556;2023-09-07T09:15:15;93937.56;;;24.32;47.12
10466;BME280;5280;42.600;23.556;2023-09-07T09:17:41;93878.75;;;23.98;46.67
10466;BME280;5280;42.600;23.556;2023-09-07T09:20:20;93899.03;;;24.24;48.35
10466;BME280;5280;42.600;23.556;2023-09-07T09:22:48;93967.72;;;24.51;48.12
10466;BME280;5280;42.600;23.556;2023-09-07T09:25:16;93866.81;;;24.08;47.22
10466;BME280;5280;42.600;23.556;2023-09-07T09:27:46;93946.84;;;24.66;47.67
10466;BME280;5280;42.600;23.556;2023-09-07T09:30:13;93903.78;;;24.43;47.97
10466;BME280;5280;42.600;23.556;2023-09-07T09:32:42;93951.53;;;24.57;48.17
10466;BME280;5280;42.600;23.556;2023-09-07T09:35:09;93937.41;;;24.55;48.70
10466;BME280;5280;42.600;23.556;2023-09-07T09:37:46;93937.91;;;24.44;48.40
10466;BME280;5280;42.600;23.556;2023-09-07T09:40:16;93855.13;;;24.00;49.80
10466;BME280;5280;42.600;23.556;2023-09-07T09:42:44;93937.34;;;24.70;49.60
10466;BME280;5280;42.600;23.556;2023-09-07T09:45:11;93861.13;;;24.17;48.76
10466;BME280;5280;42.600;23.556;2023-09-07T09:47:40;93832.16;;;24.26;48.49
10466;BME280;5280;42.600;23.556;2023-09-07T09:50:08;93914.47;;;24.72;48.29
10466;BME280;5280;42.600;23.556;2023-09-07T09:52:36;93929.16;;;24.84;47.15
10466;BME280;5280;42.600;23.556;2023-09-07T09:55:07;93934.56;;;24.84;47.45
10466;BME280;5280;42.600;23.556;2023-09-07T09:57:39;93931.66;;;24.86;48.07
10466;BME280;5280;42.600;23.556;2023-09-07T10:00:08;93905.44;;;24.86;48.07
10466;BME280;5280;42.600;23.556;2023-09-07T10:02:49;93922.47;;;25.02;46.73
10466;BME280;5280;42.600;23.556;2023-09-07T10:05:18;93906.81;;;24.97;47.12
10466;BME280;5280;42.600;23.556;2023-09-07T10:07:48;93826.19;;;24.58;45.47
10466;BME280;5280;42.600;23.556;2023-09-07T10:10:19;93918.19;;;25.14;46.10
10466;BME280;5280;42.600;23.556;2023-09-07T10:12:52;93872.66;;;24.90;44.94
10466;BME280;5280;42.600;23.556;2023-09-07T10:15:21;93832.09;;;24.68;45.05
10466;BME280;5280;42.600;23.556;2023-09-07T10:17:48;93931.81;;;25.27;45.60
10466;BME280;5280;42.600;23.556;2023-09-07T10:20:19;93838.16;;;24.70;47.05
10466;BME280;5280;42.600;23.556;2023-09-07T10:22:50;93924.53;;;25.27;47.67
10466;BME280;5280;42.600;23.556;2023-09-07T10:25:23;93913.28;;;25.24;48.13
10466;BME280;5280;42.600;23.556;2023-09-07T10:27:51;93878.25;;;24.88;48.44
10466;BME280;5280;42.600;23.556;2023-09-07T10:30:19;93918.63;;;25.17;48.53
10466;BME280;5280;42.600;23.556;2023-09-07T10:32:49;93918.97;;;25.08;47.80
10466;BME280;5280;42.600;23.556;2023-09-07T10:35:18;93852.13;;;24.53;48.97
10466;BME280;5280;42.600;23.556;2023-09-07T10:37:47;93924.28;;;24.95;49.14
10466;BME280;5280;42.600;23.556;2023-09-07T10:40:19;93925.44;;;24.85;49.12
10466;BME280;5280;42.600;23.556;2023-09-07T10:42:46;93905.34;;;24.73;49.44
10466;BME280;5280;42.600;23.556;2023-09-07T10:45:16;93906.53;;;24.71;49.89
10466;BME280;5280;42.600;23.556;2023-09-07T10:47:43;93927.16;;;24.72;49.73
10466;BME280;5280;42.600;23.556;2023-09-07T10:50:12;93840.78;;;24.00;50.08
10466;BME280;5280;42.600;23.556;2023-09-07T10:52:39;93872.22;;;24.08;49.90
10466;BME280;5280;42.600;23.556;2023-09-07T10:55:08;93927.00;;;24.37;50.56
10466;BME280;5280;42.600;23.556;2023-09-07T10:57:45;93931.00;;;24.20;51.51
10466;BME280;5280;42.600;23.556;2023-09-07T11:00:15;93935.34;;;24.21;52.45
10466;BME280;5280;42.600;23.556;2023-09-07T11:02:43;93909.84;;;24.09;51.93
10466;BME280;5280;42.600;23.556;2023-09-07T11:05:10;93933.88;;;24.19;51.56
10466;BME280;5280;42.600;23.556;2023-09-07T11:07:38;93883.53;;;23.82;51.62
10466;BME280;5280;42.600;23.556;2023-09-07T11:10:09;93856.28;;;23.62;51.97
10466;BME280;5280;42.600;23.556;2023-09-07T11:12:37;93912.31;;;23.89;53.01
10466;BME280;5280;42.600;23.556;2023-09-07T11:15:07;93850.63;;;23.42;52.26
10466;BME280;5280;42.600;23.556;2023-09-07T11:17:38;93885.44;;;23.52;53.28
10466;BME280;5280;42.600;23.556;2023-09-07T11:20:07;93935.66;;;23.82;54.09
10466;BME280;5280;42.600;23.556;2023-09-07T11:22:41;93940.53;;;23.72;53.55
10466;BME280;5280;42.600;23.556;2023-09-07T11:25:08;93917.19;;;23.50;53.49
10466;BME280;5280;42.600;23.556;2023-09-07T11:27:35;93866.97;;;23.11;54.31
10466;BME280;5280;42.600;23.556;2023-09-07T11:30:02;93942.66;;;23.62;54.73
10466;BME280;5280;42.600;23.556;2023-09-07T11:32:34;93847.09;;;22.98;53.70
10466;BME280;5280;42.600;23.556;2023-09-07T11:35:04;93930.28;;;23.53;53.81
10466;BME280;5280;42.600;23.556;2023-09-07T11:37:33;93907.78;;;23.46;53.71
10466;BME280;5280;42.600;23.556;2023-09-07T11:40:02;93921.56;;;23.66;54.63
10466;BME280;5280;42.600;23.556;2023-09-07T11:42:36;93880.22;;;23.36;53.89
10466;BME280;5280;42.600;23.556;2023-09-07T11:45:06;93865.06;;;23.35;54.57
10466;BME280;5280;42.600;23.556;2023-09-07T11:47:34;93913.25;;;23.67;53.87
10466;BME280;5280;42.600;23.556;2023-09-07T11:50:04;93913.06;;;23.69;54.29
10466;BME280;5280;42.600;23.556;2023-09-07T11:52:32;93864.22;;;23.49;53.11
10466;BME280;5280;42.600;23.556;2023-09-07T11:54:58;93870.75;;;23.54;53.71
10466;BME280;5280;42.600;23.556;2023-09-07T11:57:25;93877.28;;;23.45;53.00
10466;BME280;5280;42.600;23.556;2023-09-07T11:59:52;93907.56;;;23.77;53.10
10466;BME280;5280;42.600;23.556;2023-09-07T12:02:19;93918.44;;;23.83;53.09
10466;BME280;5280;42.600;23.556;2023-09-07T12:04:47;93925.09;;;23.81;53.42
10466;BME280;5280;42.600;23.556;2023-09-07T12:07:15;93897.72;;;23.69;53.00
10466;BME280;5280;42.600;23.556;2023-09-07T12:09:42;93892.94;;;23.71;52.92
10466;BME280;5280;42.600;23.556;2023-09-07T12:12:08;93906.63;;;23.84;52.44
10466;BME280;5280;42.600;23.556;2023-09-07T12:14:36;93903.94;;;23.84;52.29
10466;BME280;5280;42.600;23.556;2023-09-07T12:17:03;93895.91;;;23.76;51.54
10466;BME280;5280;42.600;23.556;2023-09-07T12:19:30;93812.28;;;23.32;53.03
10466;BME280;5280;42.600;23.556;2023-09-07T12:22:00;93885.94;;;23.91;53.99
10466;BME280;5280;42.600;23.556;2023-09-07T12:24:30;93902.94;;;24.07;50.75
10466;BME280;5280;42.600;23.556;2023-09-07T12:26:57;93899.22;;;24.08;51.34
10466;BME280;5280;42.600;23.556;2023-09-07T12:29:25;93859.81;;;23.77;51.25
10466;BME280;5280;42.600;23.556;2023-09-07T12:31:52;93896.63;;;23.99;50.48
10466;BME280;5280;42.600;23.556;2023-09-07T12:34:18;93827.00;;;23.59;51.04
10466;BME280;5280;42.600;23.556;2023-09-07T12:36:48;93903.34;;;24.03;53.11
10466;BME280;5280;42.600;23.556;2023-09-07T12:39:15;93903.06;;;23.98;52.37
10466;BME280;5280;42.600;23.556;2023-09-07T12:41:44;93907.06;;;24.02;52.06
10466;BME280;5280;42.600;23.556;2023-09-07T12:44:11;93915.50;;;24.14;52.72
10466;BME280;5280;42.600;23.556;2023-09-07T12:46:38;93831.06;;;23.70;53.54
10466;BME280;5280;42.600;23.556;2023-09-07T12:49:05;93907.59;;;24.13;51.15
10466;BME280;5280;42.600;23.556;2023-09-07T12:51:32;93889.81;;;24.18;50.94
10466;BME280;5280;42.600;23.556;2023-09-07T12:53:59;93920.25;;;24.27;49.82
10466;BME280;5280;42.600;23.556;2023-09-07T12:56:26;93833.06;;;23.82;50.32
10466;BME280;5280;42.600;23.556;2023-09-07T12:58:54;93872.22;;;24.08;50.29
10466;BME280;5280;42.600;23.556;2023-09-07T13:01:22;93863.41;;;23.99;51.04